Time;durP1;ratioP1;P1;durP2;ratioP2;P2;SDS_P1;SDS_P2;PMS_P1;PMS_P2;Temp;Humidity;BMP_temperature;BMP_pressure;BME280_temperature;BME280_humidity;BME280_pressure;Samples;Min_cycle;Max_cycle;Signal;HPM_P1;HPM_P2
2021/06/01 00:00:40;;;;;;;6.93;5.25;;;12.80;68.50;;;;;;5096011;28;20027;-46
2021/06/01 00:03:06;;;;;;;7.20;5.72;;;12.80;68.60;;;;;;5095613;28;20068;-46
2021/06/01 00:05:31;;;;;;;6.97;5.28;;;12.80;68.90;;;;;;5095756;28;20115;-45
2021/06/01 00:07:57;;;;;;;8.75;5.78;;;12.80;69.00;;;;;;5095922;28;20024;-47
2021/06/01 00:10:23;;;;;;;8.38;5.45;;;12.80;69.00;;;;;;5095692;28;20031;-39
2021/06/01 00:12:48;;;;;;;10.07;5.43;;;12.80;69.00;;;;;;5095962;28;20031;-38
2021/06/01 00:15:14;;;;;;;6.70;5.32;;;12.80;68.90;;;;;;5095416;28;20020;-37
2021/06/01 00:17:40;;;;;;;7.47;5.30;;;12.70;68.90;;;;;;5096006;28;20027;-37
2021/06/01 00:20:07;;;;;;;9.45;5.53;;;12.70;68.70;;;;;;5095598;28;20035;-39
2021/06/01 00:22:33;;;;;;;9.07;5.43;;;12.70;68.90;;;;;;5095904;28;20035;-45
2021/06/01 00:24:58;;;;;;;9.27;5.53;;;12.70;69.10;;;;;;5095426;28;20056;-46
2021/06/01 00:27:25;;;;;;;8.70;5.72;;;12.70;69.30;;;;;;5097575;28;20066;-46
2021/06/01 00:29:50;;;;;;;6.25;4.90;;;12.80;69.40;;;;;;5099836;28;20039;-38
2021/06/01 00:32:16;;;;;;;7.40;6.28;;;12.70;69.20;;;;;;5099946;28;20036;-48
2021/06/01 00:34:42;;;;;;;7.85;6.28;;;12.70;69.20;;;;;;5099694;28;20024;-46
2021/06/01 00:37:07;;;;;;;6.72;5.60;;;12.70;69.50;;;;;;5099023;28;20056;-37
2021/06/01 00:39:33;;;;;;;9.13;6.35;;;12.70;69.70;;;;;;5099493;28;20059;-37
2021/06/01 00:41:59;;;;;;;8.70;5.90;;;12.70;69.80;;;;;;5099650;28;20103;-45
2021/06/01 00:44:24;;;;;;;7.60;5.85;;;12.70;69.70;;;;;;5099539;28;20304;-39
2021/06/01 00:46:50;;;;;;;8.10;6.03;;;12.70;69.60;;;;;;5099199;28;20439;-45
2021/06/01 00:49:16;;;;;;;5.90;5.25;;;12.80;69.40;;;;;;5099325;28;20097;-40
2021/06/01 00:51:41;;;;;;;8.98;5.53;;;12.80;69.40;;;;;;5099302;28;20056;-38
2021/06/01 00:54:07;;;;;;;8.13;5.85;;;12.80;69.60;;;;;;5099079;28;20117;-39
2021/06/01 00:56:33;;;;;;;7.03;5.50;;;12.80;69.70;;;;;;5099200;28;20427;-45
2021/06/01 00:58:59;;;;;;;6.43;4.72;;;12.80;69.70;;;;;;5098473;28;20035;-37
2021/06/01 01:01:25;;;;;;;7.80;5.25;;;12.80;69.70;;;;;;5099433;28;20119;-47
2021/06/01 01:03:53;;;;;;;7.63;5.28;;;12.80;69.50;;;;;;5099085;28;20036;-38
2021/06/01 01:06:42;;;;;;;8.07;5.63;;;12.80;69.60;;;;;;5098964;28;20093;-45
2021/06/01 01:09:15;;;;;;;9.38;5.47;;;12.80;69.60;;;;;;5098651;28;20039;-47
2021/06/01 01:12:20;;;;;;;7.18;5.68;;;12.80;69.60;;;;;;5099185;28;20285;-48
2021/06/01 01:15:00;;;;;;;8.98;5.63;;;12.80;69.70;;;;;;5056379;28;20049;-44
2021/06/01 01:17:35;;;;;;;8.20;5.67;;;12.80;69.70;;;;;;5094258;28;20132;-44
2021/06/01 01:20:09;;;;;;;7.40;4.90;;;12.80;69.90;;;;;;5098580;28;20032;-45
2021/06/01 01:22:41;;;;;;;9.35;6.20;;;12.80;70.50;;;;;;5098950;28;20035;-38
2021/06/01 01:25:24;;;;;;;6.75;4.88;;;12.80;70.10;;;;;;5098426;28;20032;-45
2021/06/01 01:27:59;;;;;;;6.22;5.00;;;12.90;70.00;;;;;;5098928;28;20032;-44
2021/06/01 01:30:29;;;;;;;7.18;5.82;;;12.80;70.10;;;;;;5098754;28;20035;-37
2021/06/01 01:32:58;;;;;;;7.57;5.43;;;12.80;70.00;;;;;;5098137;28;20173;-44
2021/06/01 01:35:31;;;;;;;5.90;4.97;;;12.80;70.30;;;;;;5098252;28;20435;-38
2021/06/01 01:38:00;;;;;;;8.07;5.32;;;12.80;69.80;;;;;;5097623;28;20052;-46
2021/06/01 01:40:28;;;;;;;10.50;5.53;;;12.90;70.10;;;;;;5097467;28;20055;-37
2021/06/01 01:43:01;;;;;;;7.38;4.95;;;12.90;69.90;;;;;;5098376;28;20039;-46
2021/06/01 01:45:34;;;;;;;5.57;4.93;;;12.80;69.70;;;;;;5098067;28;20032;-36
2021/06/01 01:50:57;;;;;;;7.22;5.90;;;12.90;70.20;;;;;;5098351;28;20039;-45
2021/06/01 01:53:24;;;;;;;;;;;12.90;70.30;;;;;;5098651;28;20432;-37
2021/06/01 01:55:51;;;;;;;6.95;4.57;;;12.80;69.90;;;;;;5098030;28;19916;-45
2021/06/01 01:58:18;;;;;;;5.25;4.75;;;12.80;70.20;;;;;;5097752;28;20055;-37
2021/06/01 02:00:45;;;;;;;6.60;5.38;;;12.80;70.20;;;;;;5097810;28;20312;-37
2021/06/01 02:03:11;;;;;;;6.97;5.28;;;12.90;70.20;;;;;;5097847;28;20032;-37
2021/06/01 02:05:39;;;;;;;7.80;5.40;;;12.90;70.10;;;;;;5098158;28;20024;-47
2021/06/01 02:08:08;;;;;;;5.85;5.25;;;12.80;70.30;;;;;;5097572;28;20020;-45
2021/06/01 02:10:34;;;;;;;6.38;5.05;;;12.90;70.40;;;;;;5098037;28;20020;-37
2021/06/01 02:13:00;;;;;;;8.30;5.53;;;12.80;70.20;;;;;;5097571;28;20039;-45
2021/06/01 02:15:25;;;;;;;11.05;5.60;;;12.90;70.40;;;;;;5097879;28;20036;-45
2021/06/01 02:17:51;;;;;;;6.97;5.10;;;12.80;70.40;;;;;;5097856;28;20025;-37
2021/06/01 02:20:17;;;;;;;5.93;4.40;;;12.80;70.40;;;;;;5097857;28;20032;-45
2021/06/01 02:25:44;;;;;;;7.43;4.80;;;12.90;70.80;;;;;;5097655;28;20545;-45
2021/06/01 02:28:22;;;;;;;7.50;5.00;;;12.80;70.70;;;;;;5097621;28;20043;-37
2021/06/01 02:30:55;;;;;;;7.85;4.68;;;12.90;70.80;;;;;;5097516;28;20235;-37
2021/06/01 02:33:23;;;;;;;8.52;5.57;;;12.90;70.80;;;;;;5097271;28;20028;-47
2021/06/01 02:35:50;;;;;;;8.93;4.80;;;12.90;70.40;;;;;;5097285;28;20111;-37
2021/06/01 02:38:18;;;;;;;8.57;4.88;;;12.90;70.60;;;;;;5096699;28;20324;-45
2021/06/01 02:40:46;;;;;;;7.35;4.68;;;12.90;70.80;;;;;;5097325;28;20324;-37
2021/06/01 02:43:14;;;;;;;7.25;4.55;;;12.90;70.90;;;;;;5096845;28;20087;-37
2021/06/01 02:45:41;;;;;;;6.60;4.95;;;12.90;70.80;;;;;;5096968;28;20016;-37
2021/06/01 02:48:09;;;;;;;7.53;5.35;;;12.90;70.70;;;;;;5097187;28;20028;-45
2021/06/01 02:50:36;;;;;;;8.15;4.43;;;13.00;70.70;;;;;;5096713;28;20027;-36
2021/06/01 02:53:03;;;;;;;6.47;5.00;;;13.00;70.60;;;;;;5096973;28;20025;-45
2021/06/01 02:55:29;;;;;;;7.55;4.70;;;13.00;70.30;;;;;;5096829;28;20031;-49
2021/06/01 02:57:55;;;;;;;6.90;4.82;;;13.00;70.30;;;;;;5096522;28;20032;-46
2021/06/01 03:00:23;;;;;;;6.97;5.10;;;13.00;70.40;;;;;;5096576;28;20094;-45
2021/06/01 03:02:49;;;;;;;6.15;4.70;;;13.00;70.60;;;;;;5097113;28;20024;-37
2021/06/01 03:05:17;;;;;;;8.40;5.03;;;13.00;70.50;;;;;;5096483;28;20039;-47
2021/06/01 03:07:50;;;;;;;5.50;4.63;;;13.00;70.30;;;;;;5097042;28;20320;-45
2021/06/01 03:10:16;;;;;;;7.13;4.80;;;13.00;70.20;;;;;;5096222;28;20062;-37
2021/06/01 03:13:15;;;;;;;9.02;4.72;;;13.00;70.30;;;;;;5097096;28;20110;-44
2021/06/01 03:15:34;;;;;;;5.65;4.70;;;13.00;70.10;;;;;;5093161;28;20428;-49
2021/06/01 03:17:59;;;;;;;6.72;4.32;;;13.10;70.10;;;;;;5096427;28;20028;-45
2021/06/01 03:20:25;;;;;;;6.00;4.53;;;13.10;70.10;;;;;;5096385;28;20299;-45
2021/06/01 03:22:51;;;;;;;4.97;3.97;;;13.10;69.80;;;;;;5096273;28;20362;-37
2021/06/01 03:25:17;;;;;;;11.65;4.75;;;13.10;69.80;;;;;;5096190;28;20024;-47
2021/06/01 03:27:43;;;;;;;8.57;4.65;;;13.10;69.80;;;;;;5096740;28;20434;-37
2021/06/01 03:30:10;;;;;;;7.90;4.22;;;13.10;69.80;;;;;;5096396;28;20028;-45
2021/06/01 03:32:36;;;;;;;5.25;4.35;;;13.10;69.60;;;;;;5096000;28;20115;-37
2021/06/01 03:35:02;;;;;;;5.53;4.10;;;13.10;69.70;;;;;;5095902;28;20024;-48
2021/06/01 03:37:28;;;;;;;7.22;4.00;;;13.20;69.30;;;;;;5095998;28;20089;-37
2021/06/01 03:39:54;;;;;;;6.70;4.18;;;13.20;69.30;;;;;;5095706;28;20027;-37
2021/06/01 03:42:20;;;;;;;8.43;4.57;;;13.20;69.20;;;;;;5096135;28;20031;-38
2021/06/01 03:44:46;;;;;;;8.10;5.50;;;13.20;69.20;;;;;;5096120;28;20032;-37
2021/06/01 03:47:12;;;;;;;5.35;4.63;;;13.20;69.30;;;;;;5096034;28;20494;-46
2021/06/01 03:49:38;;;;;;;5.68;4.50;;;13.20;69.60;;;;;;5095717;28;20073;-45
2021/06/01 03:52:07;;;;;;;7.93;4.30;;;13.20;69.50;;;;;;5096079;28;20034;-36
2021/06/01 03:54:38;;;;;;;6.05;4.47;;;13.20;69.60;;;;;;5096033;28;20039;-37
2021/06/01 03:57:05;;;;;;;7.53;4.47;;;13.20;69.90;;;;;;5095886;28;20318;-47
2021/06/01 03:59:32;;;;;;;6.72;4.72;;;13.20;69.80;;;;;;5095536;28;20040;-37
2021/06/01 04:01:57;;;;;;;5.60;4.43;;;13.20;69.70;;;;;;5095043;28;20032;-38
2021/06/01 04:04:23;;;;;;;6.93;4.57;;;13.20;69.70;;;;;;5095931;28;20034;-36
2021/06/01 04:06:49;;;;;;;6.88;4.88;;;13.20;69.80;;;;;;5095882;28;20127;-45
2021/06/01 04:09:14;;;;;;;13.85;4.78;;;13.20;69.80;;;;;;5095749;28;20028;-45
2021/06/01 04:11:40;;;;;;;7.10;4.60;;;13.30;70.00;;;;;;5095969;28;20024;-46
2021/06/01 04:14:06;;;;;;;7.28;5.15;;;13.30;69.90;;;;;;5095532;28;20031;-45
2021/06/01 04:16:32;;;;;;;7.32;5.13;;;13.40;69.90;;;;;;5095776;28;20062;-37
2021/06/01 04:18:58;;;;;;;9.20;4.97;;;13.40;69.70;;;;;;5095376;28;20082;-45
2021/06/01 04:21:23;;;;;;;9.70;4.60;;;13.40;69.10;;;;;;5095685;28;20032;-46
2021/06/01 04:23:49;;;;;;;9.13;5.40;;;13.40;68.80;;;;;;5095358;28;20028;-37
2021/06/01 04:26:15;;;;;;;9.65;5.63;;;13.50;68.90;;;;;;5095595;28;20028;-37
2021/06/01 04:28:41;;;;;;;8.68;6.03;;;13.50;69.00;;;;;;5095941;28;20071;-37
2021/06/01 04:31:08;;;;;;;9.75;5.78;;;13.50;68.90;;;;;;5095459;28;20036;-37
2021/06/01 04:33:34;;;;;;;7.75;5.25;;;13.50;68.70;;;;;;5095536;28;20319;-37
2021/06/01 04:35:59;;;;;;;7.30;5.45;;;13.50;68.70;;;;;;5095602;28;20472;-36
2021/06/01 04:38:25;;;;;;;8.90;5.07;;;13.50;68.70;;;;;;5094969;28;20139;-45
2021/06/01 04:40:52;;;;;;;11.45;5.72;;;13.40;68.60;;;;;;5095146;28;20036;-44
2021/06/01 04:43:18;;;;;;;17.55;7.28;;;13.50;68.40;;;;;;5095091;28;20043;-37
2021/06/01 04:45:43;;;;;;;8.48;5.53;;;13.40;68.50;;;;;;5095252;28;20099;-37
2021/06/01 04:48:09;;;;;;;13.30;5.22;;;13.50;68.60;;;;;;5094852;28;20039;-46
2021/06/01 04:50:35;;;;;;;11.38;4.90;;;13.50;68.80;;;;;;5095070;28;20077;-46
2021/06/01 04:53:00;;;;;;;7.68;4.30;;;13.40;68.40;;;;;;5095123;28;20032;-46
2021/06/01 04:55:26;;;;;;;8.40;4.72;;;13.50;68.20;;;;;;5095233;28;20391;-46
2021/06/01 04:57:52;;;;;;;8.98;3.92;;;13.50;67.90;;;;;;5095331;28;20024;-46
2021/06/01 05:00:18;;;;;;;7.80;4.72;;;13.50;68.00;;;;;;5094783;28;20412;-38
2021/06/01 05:02:44;;;;;;;7.88;4.55;;;13.50;68.10;;;;;;5095488;28;20033;-46
2021/06/01 05:05:10;;;;;;;10.15;4.70;;;13.60;68.40;;;;;;5094566;28;20393;-47
2021/06/01 05:07:36;;;;;;;5.00;4.28;;;13.60;68.60;;;;;;5095414;28;20059;-45
2021/06/01 05:10:03;;;;;;;5.75;3.97;;;13.60;68.20;;;;;;5094710;28;20071;-45
2021/06/01 05:12:30;;;;;;;6.18;4.93;;;13.70;67.70;;;;;;5095423;28;20028;-46
2021/06/01 05:14:56;;;;;;;7.43;5.07;;;13.80;67.60;;;;;;5097181;28;20036;-37
2021/06/01 05:17:22;;;;;;;6.00;4.07;;;13.80;67.50;;;;;;5098972;28;20466;-46
2021/06/01 05:19:48;;;;;;;5.70;3.88;;;13.90;67.40;;;;;;5098421;28;20048;-37
2021/06/01 05:22:13;;;;;;;7.13;3.67;;;13.90;67.00;;;;;;5098679;28;20070;-36
2021/06/01 05:24:39;;;;;;;4.22;3.65;;;14.00;66.70;;;;;;5098023;28;20078;-36
2021/06/01 05:27:06;;;;;;;6.43;3.15;;;14.00;66.40;;;;;;5098363;28;20080;-37
2021/06/01 05:29:35;;;;;;;3.85;3.30;;;14.10;65.80;;;;;;5098405;28;20378;-47
2021/06/01 05:32:10;;;;;;;4.63;3.40;;;14.10;65.60;;;;;;5098399;28;20032;-49
2021/06/01 05:34:38;;;;;;;3.83;3.00;;;14.20;65.40;;;;;;5098026;28;20044;-43
2021/06/01 05:37:04;;;;;;;7.47;2.88;;;14.20;64.90;;;;;;5079887;28;20044;-37
2021/06/01 05:39:30;;;;;;;12.82;4.07;;;14.20;64.60;;;;;;5097695;28;20090;-42
2021/06/01 05:41:55;;;;;;;8.32;3.25;;;14.30;64.40;;;;;;5098126;28;20044;-43
2021/06/01 05:44:21;;;;;;;3.15;2.40;;;14.30;64.60;;;;;;5097516;28;20052;-43
2021/06/01 05:46:47;;;;;;;2.55;2.25;;;14.30;64.30;;;;;;5098042;28;20435;-43
2021/06/01 05:49:12;;;;;;;5.80;2.85;;;14.40;63.90;;;;;;5097682;28;20032;-43
2021/06/01 05:51:38;;;;;;;5.13;3.08;;;14.40;63.80;;;;;;5097832;28;20063;-37
2021/06/01 05:54:05;;;;;;;6.47;2.90;;;14.40;63.80;;;;;;5097916;28;20028;-37
2021/06/01 05:56:31;;;;;;;4.35;2.28;;;14.50;63.90;;;;;;5097608;28;20024;-43
2021/06/01 05:58:56;;;;;;;2.95;2.13;;;14.50;63.70;;;;;;5097048;28;20047;-43
2021/06/01 06:01:22;;;;;;;3.92;2.33;;;14.60;63.50;;;;;;5097759;28;20024;-43
2021/06/01 06:03:48;;;;;;;25.02;3.17;;;14.60;63.30;;;;;;5097517;28;20082;-43
2021/06/01 06:06:15;;;;;;;8.85;2.70;;;14.70;63.20;;;;;;5097655;28;20036;-37
2021/06/01 06:08:41;;;;;;;5.88;2.70;;;14.70;63.00;;;;;;5097020;28;20040;-37
2021/06/01 06:11:07;;;;;;;5.30;1.95;;;14.80;62.50;;;;;;5097138;28;20140;-43
2021/06/01 06:13:33;;;;;;;2.22;2.00;;;14.80;62.00;;;;;;5096860;28;20115;-43
2021/06/01 06:15:59;;;;;;;6.38;3.03;;;14.90;61.40;;;;;;5097264;28;20460;-43
2021/06/01 06:18:31;;;;;;;5.75;3.25;;;14.90;61.50;;;;;;5096834;28;20352;-37
2021/06/01 06:21:06;;;;;;;6.40;3.03;;;15.00;61.50;;;;;;5096964;28;20070;-37
2021/06/01 06:23:34;;;;;;;5.85;2.72;;;15.00;61.20;;;;;;5097056;28;20036;-43
2021/06/01 06:26:01;;;;;;;2.60;1.88;;;15.10;61.40;;;;;;5096796;28;20024;-37
2021/06/01 06:28:29;;;;;;;3.65;1.92;;;15.10;60.60;;;;;;5091555;28;20035;-41
2021/06/01 06:30:55;;;;;;;4.18;2.22;;;15.10;60.80;;;;;;5096791;28;20104;-37
2021/06/01 06:33:21;;;;;;;2.65;2.25;;;15.10;60.80;;;;;;5096069;28;20102;-36
2021/06/01 06:35:46;;;;;;;4.55;2.45;;;15.00;60.50;;;;;;5096648;28;20020;-37
2021/06/01 06:38:12;;;;;;;3.45;2.47;;;15.00;60.70;;;;;;5095620;28;20332;-44
2021/06/01 06:40:38;;;;;;;2.42;2.22;;;15.00;60.80;;;;;;5096745;28;20020;-43
2021/06/01 06:43:03;;;;;;;3.42;2.13;;;14.90;60.70;;;;;;5096235;28;20032;-41
2021/06/01 06:45:31;;;;;;;5.22;2.40;;;14.90;60.60;;;;;;5096737;28;20028;-37
2021/06/01 06:48:05;;;;;;;5.80;2.20;;;14.90;60.50;;;;;;5095959;28;20024;-37
2021/06/01 06:50:32;;;;;;;4.90;2.53;;;15.00;60.50;;;;;;5096317;28;20028;-38
2021/06/01 06:52:58;;;;;;;5.72;3.10;;;15.00;60.30;;;;;;5095911;28;20296;-38
2021/06/01 06:55:24;;;;;;;6.47;2.70;;;14.90;60.30;;;;;;5096043;28;20031;-43
2021/06/01 06:57:50;;;;;;;4.60;2.45;;;15.00;60.60;;;;;;5096704;28;20103;-38
2021/06/01 07:00:18;;;;;;;15.10;2.80;;;15.00;60.30;;;;;;5095624;28;20143;-38
2021/06/01 07:02:44;;;;;;;9.63;2.88;;;15.00;60.50;;;;;;5096160;28;20297;-37
2021/06/01 07:05:12;;;;;;;20.95;4.57;;;15.10;60.70;;;;;;5095574;28;20036;-37
2021/06/01 07:07:38;;;;;;;4.57;2.25;;;15.20;61.10;;;;;;5096115;28;20101;-38
2021/06/01 07:10:04;;;;;;;7.82;2.30;;;15.30;60.60;;;;;;5095674;28;20032;-44
2021/06/01 07:12:30;;;;;;;3.72;2.03;;;15.40;60.00;;;;;;5095804;28;20031;-38
2021/06/01 07:15:10;;;;;;;7.70;2.17;;;15.40;59.70;;;;;;5095157;28;20028;-43
2021/06/01 07:17:35;;;;;;;7.28;2.08;;;15.40;59.40;;;;;;5095848;28;20423;-44
2021/06/01 07:20:02;;;;;;;6.50;2.05;;;15.40;59.20;;;;;;5095321;28;20024;-37
2021/06/01 07:22:27;;;;;;;4.25;2.70;;;15.40;59.30;;;;;;5095711;28;20428;-44
2021/06/01 07:24:53;;;;;;;6.00;2.85;;;15.40;59.00;;;;;;5095111;28;20142;-43
2021/06/01 07:27:19;;;;;;;8.32;2.58;;;15.40;58.90;;;;;;5095617;28;20051;-38
2021/06/01 07:29:44;;;;;;;17.25;3.60;;;15.40;59.00;;;;;;5095787;28;20112;-38
2021/06/01 07:32:10;;;;;;;10.13;2.70;;;15.40;58.60;;;;;;5095784;28;20039;-44
2021/06/01 07:34:36;;;;;;;6.35;2.30;;;15.30;58.70;;;;;;5094309;28;20060;-37
2021/06/01 07:37:01;;;;;;;6.63;2.75;;;15.30;58.80;;;;;;5094819;28;20062;-45
2021/06/01 07:39:27;;;;;;;5.88;2.67;;;15.30;58.90;;;;;;5095300;28;20035;-42
2021/06/01 07:41:52;;;;;;;4.35;2.60;;;15.30;59.30;;;;;;5091331;28;20032;-37
2021/06/01 07:44:18;;;;;;;13.60;2.92;;;15.30;59.30;;;;;;5095525;28;20362;-44
2021/06/01 07:46:44;;;;;;;2.90;2.40;;;15.40;59.40;;;;;;5095541;28;20024;-37
2021/06/01 07:49:10;;;;;;;4.32;2.35;;;15.40;58.90;;;;;;5095064;28;20051;-43
2021/06/01 07:51:36;;;;;;;8.48;2.90;;;15.40;58.80;;;;;;5095362;28;20031;-44
2021/06/01 07:54:03;;;;;;;3.95;2.42;;;15.40;58.90;;;;;;5095066;28;20071;-37
2021/06/01 07:56:34;;;;;;;4.50;2.88;;;15.40;58.90;;;;;;5095290;28;20365;-39
2021/06/01 07:58:59;;;;;;;6.40;3.13;;;15.40;58.80;;;;;;5094481;28;20071;-37
2021/06/01 08:01:25;;;;;;;4.57;3.20;;;15.40;59.00;;;;;;5095403;28;20059;-43
2021/06/01 08:03:51;;;;;;;4.82;2.67;;;15.50;59.00;;;;;;5095152;28;20111;-38
2021/06/01 08:06:17;;;;;;;6.75;2.88;;;15.50;58.90;;;;;;5095213;28;20292;-45
2021/06/01 08:08:43;;;;;;;6.35;2.90;;;15.50;59.30;;;;;;5095057;28;20050;-37
2021/06/01 08:11:09;;;;;;;5.80;2.70;;;15.60;59.40;;;;;;5095079;28;20059;-37
2021/06/01 08:13:35;;;;;;;8.43;2.67;;;15.60;59.10;;;;;;5095022;28;20085;-37
2021/06/01 08:16:02;;;;;;;6.10;3.13;;;15.60;58.40;;;;;;5095213;28;20059;-45
2021/06/01 08:18:30;;;;;;;4.32;2.88;;;15.60;58.50;;;;;;5094665;28;20502;-43
2021/06/01 08:23:22;;;;;;;5.00;2.65;;;15.70;58.80;;;;;;5094791;28;20024;-43
2021/06/01 08:25:48;;;;;;;3.25;2.70;;;15.70;58.10;;;;;;5094868;28;20031;-37
2021/06/01 08:28:14;;;;;;;4.80;2.15;;;15.70;57.90;;;;;;5094616;28;20063;-37
2021/06/01 08:30:40;;;;;;;3.20;2.58;;;15.70;57.40;;;;;;5094439;28;20403;-43
2021/06/01 08:33:05;;;;;;;5.90;2.40;;;15.70;57.40;;;;;;5094509;28;20040;-45
2021/06/01 08:35:31;;;;;;;9.55;3.22;;;15.70;57.60;;;;;;5094476;28;20051;-38
2021/06/01 08:37:57;;;;;;;6.30;2.25;;;15.80;57.40;;;;;;5094845;28;20177;-38
2021/06/01 08:40:23;;;;;;;3.78;2.35;;;15.80;57.20;;;;;;5094784;28;20024;-43
2021/06/01 08:42:50;;;;;;;5.15;2.53;;;15.80;57.60;;;;;;5095500;28;20312;-38
2021/06/01 08:45:16;;;;;;;7.85;3.47;;;15.80;58.00;;;;;;5095127;28;20029;-37
2021/06/01 08:47:42;;;;;;;8.45;3.92;;;15.80;57.40;;;;;;5095414;28;20419;-37
2021/06/01 08:50:10;;;;;;;10.57;4.97;;;15.90;57.70;;;;;;5098973;28;20319;-42
2021/06/01 08:52:36;;;;;;;9.27;3.30;;;15.80;57.90;;;;;;5098532;28;20035;-43
2021/06/01 08:55:04;;;;;;;7.70;4.55;;;15.90;57.90;;;;;;5098531;28;20032;-42
2021/06/01 08:57:33;;;;;;;8.27;4.30;;;15.90;57.80;;;;;;5098523;28;20032;-44
2021/06/01 08:59:59;;;;;;;9.93;3.85;;;15.90;57.70;;;;;;5098527;28;20147;-37
2021/06/01 09:02:25;;;;;;;10.15;3.42;;;15.90;57.80;;;;;;5098545;28;20432;-44
2021/06/01 09:05:01;;;;;;;12.43;4.03;;;15.90;57.30;;;;;;5098196;28;20374;-38
2021/06/01 09:07:45;;;;;;;7.43;3.28;;;15.90;57.40;;;;;;5098396;28;20060;-44
2021/06/01 09:21:12;;;;;;;6.82;2.90;;;16.00;56.30;;;;;;5098337;28;20369;-44
2021/06/01 09:23:57;;;;;;;8.45;3.33;;;16.00;56.50;;;;;;5098133;28;20071;-37
2021/06/01 09:29:21;;;;;;;2.65;2.40;;;16.10;56.20;;;;;;5098026;28;20101;-37
2021/06/01 09:32:09;;;;;;;6.40;3.15;;;16.10;56.20;;;;;;5096505;28;20027;-37
2021/06/01 09:34:47;;;;;;;2.95;2.33;;;16.20;56.50;;;;;;5097846;28;20466;-37
2021/06/01 09:37:18;;;;;;;7.18;3.03;;;16.20;56.40;;;;;;5097546;28;20044;-37
2021/06/01 09:39:45;;;;;;;6.63;2.83;;;16.30;56.00;;;;;;5097711;28;20058;-37
2021/06/01 09:42:27;;;;;;;7.28;3.40;;;16.30;56.00;;;;;;5097544;28;20035;-44
2021/06/01 09:45:10;;;;;;;12.00;5.72;;;16.40;55.70;;;;;;5097662;28;20035;-37
2021/06/01 09:47:53;;;;;;;4.00;2.80;;;16.50;55.30;;;;;;5097810;28;20028;-37
2021/06/01 09:53:14;;;;;;;10.95;3.50;;;16.60;54.90;;;;;;5097646;28;20420;-44
2021/06/01 09:55:47;;;;;;;7.40;2.80;;;16.60;54.80;;;;;;5097478;28;20028;-37
2021/06/01 09:58:25;;;;;;;6.38;2.80;;;16.60;54.40;;;;;;5097496;28;20122;-45
2021/06/01 10:00:51;;;;;;;14.55;3.50;;;16.70;54.30;;;;;;5096191;28;20039;-45
2021/06/01 10:03:18;;;;;;;5.70;2.97;;;16.70;54.20;;;;;;5096314;28;20077;-45
2021/06/01 10:05:48;;;;;;;6.15;3.15;;;16.70;54.20;;;;;;5097606;28;20109;-44
2021/06/01 10:08:15;;;;;;;4.72;2.88;;;16.80;54.20;;;;;;5097101;28;20497;-44
2021/06/01 10:10:50;;;;;;;5.60;3.08;;;16.80;54.10;;;;;;5097133;28;20028;-37
2021/06/01 10:13:16;;;;;;;3.78;2.42;;;16.80;54.20;;;;;;5096996;28;20040;-44
2021/06/01 10:15:42;;;;;;;6.05;3.05;;;16.80;54.20;;;;;;5096746;28;20043;-37
2021/06/01 10:18:10;;;;;;;4.28;2.83;;;16.90;53.70;;;;;;5096991;28;20463;-42
2021/06/01 10:20:37;;;;;;;5.13;2.90;;;16.90;54.10;;;;;;5096288;28;20107;-37
2021/06/01 10:23:06;;;;;;;5.72;2.83;;;17.00;54.40;;;;;;5096997;28;20024;-44
2021/06/01 10:25:32;;;;;;;5.80;3.05;;;17.10;53.60;;;;;;5096480;28;20024;-37
2021/06/01 10:28:03;;;;;;;4.05;2.63;;;17.10;53.60;;;;;;5096511;28;20035;-38
2021/06/01 10:30:37;;;;;;;9.23;5.30;;;17.20;53.50;;;;;;5096726;28;20058;-37
2021/06/01 10:33:06;;;;;;;9.35;3.38;;;17.20;53.30;;;;;;5095848;28;20052;-37
2021/06/01 10:35:35;;;;;;;3.33;2.40;;;17.20;53.10;;;;;;5096570;28;20327;-44
2021/06/01 10:51:56;;;;;;;3.88;2.08;;;17.50;53.10;;;;;;5097071;28;20024;-43
2021/06/01 10:54:41;;;;;;;3.05;2.33;;;17.60;53.40;;;;;;5096096;28;20120;-37
2021/06/01 10:57:12;;;;;;;5.05;2.80;;;17.60;52.90;;;;;;5096462;28;20031;-37
2021/06/01 11:02:16;;;;;;;6.20;3.13;;;17.70;52.80;;;;;;5096567;28;20445;-38
2021/06/01 11:05:13;;;;;;;5.55;2.58;;;17.70;52.20;;;;;;5095868;28;20060;-43
2021/06/01 11:08:04;;;;;;;4.97;2.50;;;17.70;51.90;;;;;;5096803;28;20020;-44
2021/06/01 11:10:40;;;;;;;4.28;2.40;;;17.70;51.40;;;;;;5096234;28;20039;-44
2021/06/01 11:13:08;;;;;;;8.85;3.40;;;17.70;51.70;;;;;;5095709;28;20039;-37
2021/06/01 11:15:36;;;;;;;5.25;3.45;;;17.80;51.40;;;;;;5095926;28;20043;-37
2021/06/01 11:18:17;;;;;;;10.50;3.10;;;17.80;51.70;;;;;;5095676;28;20028;-43
2021/06/01 11:21:35;;;;;;;4.78;3.45;;;17.90;51.10;;;;;;5095773;28;20081;-43
2021/06/01 11:35:19;;;;;;;5.20;2.40;;;18.00;51.00;;;;;;5095442;28;20340;-43
2021/06/01 11:43:15;;;;;;;3.72;2.63;;;17.90;51.10;;;;;;5095476;28;20044;-38
2021/06/01 11:46:13;;;;;;;10.52;3.70;;;18.00;51.80;;;;;;5095710;28;20073;-43
2021/06/01 11:51:22;;;;;;;5.05;2.30;;;17.90;50.80;;;;;;5095484;28;20032;-38
2021/06/01 11:54:05;;;;;;;7.45;3.45;;;17.90;50.70;;;;;;5095100;28;20443;-37
2021/06/01 12:02:43;;;;;;;4.13;2.50;;;17.80;51.00;;;;;;5096114;28;20031;-43
2021/06/01 12:18:36;;;;;;;4.85;2.63;;;17.60;51.60;;;;;;5094632;28;20039;-44
2021/06/01 12:21:04;;;;;;;12.75;2.72;;;17.50;51.60;;;;;;5095341;28;20105;-37
2021/06/01 12:23:35;;;;;;;7.63;2.70;;;17.50;51.80;;;;;;5096778;28;20032;-43
2021/06/01 12:26:05;;;;;;;9.77;3.88;;;17.50;51.50;;;;;;5099329;28;20304;-38
2021/06/01 12:31:24;;;;;;;9.98;2.95;;;17.50;51.60;;;;;;5099447;28;20081;-37
2021/06/01 12:33:57;;;;;;;6.70;2.50;;;17.50;52.10;;;;;;5099196;28;20072;-37
2021/06/01 12:37:11;;;;;;;8.95;4.13;;;17.60;52.10;;;;;;5098508;28;20052;-40
2021/06/01 12:45:25;;;;;;;3.90;2.17;;;17.70;51.30;;;;;;5098897;28;20505;-37
2021/06/01 13:21:08;;;;;;;11.50;3.33;;;17.60;51.30;;;;;;5098541;28;20335;-43
2021/06/01 13:56:15;;;;;;;11.00;4.50;;;17.70;50.20;;;;;;5097343;28;20165;-37
2021/06/01 14:01:34;;;;;;;11.20;5.28;;;17.70;50.30;;;;;;5097810;28;20019;-37
2021/06/01 14:09:59;;;;;;;10.60;4.90;;;17.70;50.30;;;;;;5097072;28;20047;-43
2021/06/01 15:07:52;;;;;;;6.90;2.80;;;17.20;51.60;;;;;;5096665;28;20023;-37
2021/06/01 15:50:44;;;;;;;6.28;3.47;;;16.70;51.50;;;;;;5096117;28;20039;-43
2021/06/01 16:23:38;;;;;;;5.70;3.78;;;16.30;52.70;;;;;;5095046;28;20054;-41
2021/06/01 16:29:40;;;;;;;9.38;4.00;;;16.20;53.10;;;;;;5094918;28;20038;-38
2021/06/01 16:31:49;;;;;;;6.68;3.30;;;16.20;52.90;;;;;;5095439;28;20024;-42
2021/06/01 16:42:44;;;;;;;8.23;2.90;;;16.20;54.00;;;;;;5095947;28;20520;-41
2021/06/01 17:07:23;;;;;;;4.78;3.30;;;15.90;54.00;;;;;;5082115;28;20028;-37
2021/06/01 17:12:47;;;;;;;8.20;3.33;;;15.90;54.40;;;;;;5099626;28;20083;-37
2021/06/01 17:15:15;;;;;;;6.85;3.28;;;15.90;54.20;;;;;;5098334;28;20032;-37
2021/06/01 17:17:49;;;;;;;4.40;3.05;;;15.80;54.00;;;;;;5099277;28;20169;-37
2021/06/01 17:36:45;;;;;;;5.05;2.92;;;15.70;54.70;;;;;;5118965;28;20160;-43
2021/06/01 17:39:11;;;;;;;25.02;16.85;;;15.70;54.90;;;;;;5118263;28;20034;-42
2021/06/01 17:41:38;;;;;;;5.75;3.28;;;15.70;55.00;;;;;;5118846;27;20304;-38
2021/06/01 17:44:06;;;;;;;8.65;3.20;;;15.70;55.10;;;;;;5084373;28;20028;-44
2021/06/01 17:46:41;;;;;;;5.70;2.80;;;15.70;55.40;;;;;;5076686;28;20043;-43
2021/06/01 17:49:08;;;;;;;8.15;3.10;;;15.70;55.10;;;;;;5077203;28;20032;-43
2021/06/01 17:51:36;;;;;;;6.60;3.10;;;15.70;55.30;;;;;;5077702;28;20039;-43
2021/06/01 17:54:02;;;;;;;9.98;2.72;;;15.60;55.00;;;;;;5076126;28;20072;-41
2021/06/01 17:56:30;;;;;;;3.88;2.28;;;15.60;55.10;;;;;;5077871;28;20032;-38
2021/06/01 17:58:57;;;;;;;4.95;2.60;;;15.60;55.30;;;;;;5076789;28;20451;-38
2021/06/01 18:01:27;;;;;;;9.77;3.03;;;15.60;55.40;;;;;;5077512;28;20052;-38
2021/06/01 18:04:00;;;;;;;6.00;2.90;;;15.60;55.20;;;;;;5076885;28;20024;-44
2021/06/01 18:06:54;;;;;;;5.40;2.80;;;15.60;55.30;;;;;;5077713;28;20289;-44
2021/06/01 19:49:55;;;;;;;6.18;2.90;;;15.20;58.20;;;;;;5072404;28;20501;-43
2021/06/01 19:51:20;;;;;;;8.43;3.65;;;15.20;58.20;;;;;;5075749;28;20111;-43
2021/06/01 19:53:47;;;;;;;9.48;3.35;;;15.20;59.30;;;;;;5075564;28;20132;-38
2021/06/01 19:56:14;;;;;;;9.38;4.10;;;15.20;59.90;;;;;;5075781;28;20069;-43
2021/06/01 19:58:41;;;;;;;4.15;3.15;;;15.20;60.30;;;;;;5075470;28;20060;-43
2021/06/01 20:01:09;;;;;;;5.75;3.42;;;15.10;60.20;;;;;;5075557;28;20032;-38
2021/06/01 20:03:35;;;;;;;8.77;3.70;;;15.10;60.70;;;;;;5075564;28;20036;-38
2021/06/01 20:06:05;;;;;;;7.75;3.60;;;15.10;60.90;;;;;;5075637;28;20028;-37
2021/06/01 20:08:31;;;;;;;11.97;3.60;;;15.00;60.80;;;;;;5075661;28;20040;-37
2021/06/01 20:10:57;;;;;;;6.30;3.60;;;14.90;60.80;;;;;;5075467;28;20401;-37
2021/06/01 20:13:23;;;;;;;7.50;3.38;;;14.80;61.40;;;;;;5075300;28;20448;-38
2021/06/01 20:15:50;;;;;;;4.93;3.10;;;14.80;62.30;;;;;;5075732;28;20348;-37